Time;durP1;ratioP1;P1;durP2;ratioP2;P2;SDS_P1;SDS_P2;PMS_P1;PMS_P2;Temp;Humidity;BMP_temperature;BMP_pressure;BME280_temperature;BME280_humidity;BME280_pressure;Samples;Min_cycle;Max_cycle;Signal;HPM_P1;HPM_P2
2022/03/20 00:00:39;;;;;;;10.75;4.20;;;7.50;99.90;;;;;;5009384;28;20379;-65
2022/03/20 00:03:07;;;;;;;14.05;6.07;;;7.50;99.90;;;;;;5017691;28;20034;-64
2022/03/20 00:05:40;;;;;;;11.90;4.72;;;7.50;99.90;;;;;;5021586;28;20032;-64
2022/03/20 00:08:09;;;;;;;9.57;4.40;;;7.50;99.90;;;;;;5015057;28;20374;-65
2022/03/20 00:10:42;;;;;;;11.25;4.95;;;7.50;99.90;;;;;;5011037;28;20030;-63
2022/03/20 00:13:09;;;;;;;13.20;5.13;;;7.50;99.90;;;;;;5023056;28;20130;-65
2022/03/20 00:15:35;;;;;;;10.60;5.40;;;7.50;99.90;;;;;;5026477;28;20029;-63
2022/03/20 00:18:01;;;;;;;13.52;5.25;;;7.40;99.90;;;;;;5015021;28;20034;-66
2022/03/20 00:20:27;;;;;;;14.82;6.00;;;7.40;99.90;;;;;;5025689;28;20120;-62
2022/03/20 00:22:53;;;;;;;15.00;5.55;;;7.40;99.90;;;;;;5031210;28;20461;-62
2022/03/20 00:25:18;;;;;;;15.23;5.55;;;7.40;99.90;;;;;;5014569;28;20135;-64
2022/03/20 00:27:44;;;;;;;14.57;5.60;;;7.40;99.90;;;;;;5017714;28;20026;-63
2022/03/20 00:30:10;;;;;;;13.45;5.18;;;7.30;99.90;;;;;;5005910;28;20647;-64
2022/03/20 00:32:36;;;;;;;12.35;5.50;;;7.30;99.90;;;;;;5026737;28;20440;-65
2022/03/20 00:35:02;;;;;;;12.68;5.63;;;7.30;99.90;;;;;;5015674;28;20025;-66
2022/03/20 00:37:28;;;;;;;12.32;6.28;;;7.30;99.90;;;;;;5027539;28;20045;-63
2022/03/20 00:39:54;;;;;;;12.05;4.80;;;7.30;99.90;;;;;;5020225;28;20022;-66
2022/03/20 00:42:20;;;;;;;16.92;6.22;;;7.30;99.90;;;;;;5020877;28;20101;-65
2022/03/20 00:44:45;;;;;;;11.10;5.05;;;7.30;99.90;;;;;;5010582;28;20476;-65
2022/03/20 00:47:13;;;;;;;12.35;5.75;;;7.30;99.90;;;;;;5014807;28;20513;-63
2022/03/20 00:49:39;;;;;;;13.50;6.10;;;7.30;99.90;;;;;;5020673;28;20051;-63
2022/03/20 00:52:06;;;;;;;17.17;6.43;;;7.30;99.90;;;;;;5024481;28;20037;-64
2022/03/20 00:54:31;;;;;;;16.42;6.38;;;7.30;99.90;;;;;;5016418;28;20524;-64
2022/03/20 00:56:58;;;;;;;16.35;6.47;;;7.30;99.90;;;;;;5017059;28;20100;-66
2022/03/20 00:59:23;;;;;;;16.95;7.15;;;7.30;99.90;;;;;;5015282;28;20025;-63
2022/03/20 01:01:49;;;;;;;15.73;6.55;;;7.20;99.90;;;;;;5012062;28;20034;-64
2022/03/20 01:04:16;;;;;;;14.30;6.60;;;7.20;99.90;;;;;;5023033;28;20080;-64
2022/03/20 01:06:42;;;;;;;13.57;6.53;;;7.20;99.90;;;;;;5026147;28;20017;-63
2022/03/20 01:09:07;;;;;;;15.68;7.47;;;7.20;99.90;;;;;;5027386;28;20030;-67
2022/03/20 01:11:34;;;;;;;12.55;6.45;;;7.20;99.90;;;;;;5029153;28;20073;-65
2022/03/20 01:13:59;;;;;;;13.52;6.13;;;7.20;99.90;;;;;;5025062;28;20034;-66
2022/03/20 01:16:25;;;;;;;15.52;6.88;;;7.20;99.90;;;;;;5015118;28;20100;-63
2022/03/20 01:18:51;;;;;;;15.35;6.25;;;7.20;99.90;;;;;;5031747;28;20144;-64
2022/03/20 01:21:17;;;;;;;13.85;5.43;;;7.10;99.90;;;;;;5013916;28;20037;-65
2022/03/20 01:23:43;;;;;;;17.90;7.35;;;7.10;99.90;;;;;;5021224;28;20026;-64
2022/03/20 01:26:11;;;;;;;14.35;6.93;;;7.10;99.90;;;;;;5029084;28;20035;-62
2022/03/20 01:28:36;;;;;;;15.68;6.70;;;7.10;99.90;;;;;;5024792;28;20026;-63
2022/03/20 01:31:02;;;;;;;15.23;7.65;;;7.00;99.90;;;;;;5026939;28;20041;-62
2022/03/20 01:33:28;;;;;;;12.88;6.00;;;7.00;99.90;;;;;;5019709;28;20377;-62
2022/03/20 01:35:53;;;;;;;17.15;7.93;;;7.00;99.90;;;;;;5026666;28;20076;-65
2022/03/20 01:38:20;;;;;;;17.83;7.93;;;7.00;99.90;;;;;;5022176;28;20033;-65
2022/03/20 01:40:47;;;;;;;21.30;7.95;;;6.90;99.90;;;;;;5030643;28;20033;-64
2022/03/20 01:43:14;;;;;;;17.40;7.40;;;6.90;99.90;;;;;;5018483;28;20473;-63
2022/03/20 01:45:39;;;;;;;17.98;7.93;;;6.90;99.90;;;;;;5024619;28;20061;-64
2022/03/20 01:48:05;;;;;;;14.90;6.95;;;6.80;99.90;;;;;;5024817;28;20057;-62
2022/03/20 01:50:34;;;;;;;15.73;6.78;;;6.80;99.90;;;;;;5016130;28;20088;-63
2022/03/20 01:53:00;;;;;;;16.60;7.32;;;6.80;99.90;;;;;;5019883;28;20467;-66
2022/03/20 01:55:27;;;;;;;16.15;6.68;;;6.80;99.90;;;;;;5015100;28;20347;-62
2022/03/20 01:57:54;;;;;;;16.40;7.65;;;6.80;99.90;;;;;;5014826;28;20026;-67
2022/03/20 02:00:21;;;;;;;16.75;6.90;;;6.80;99.90;;;;;;5014071;28;20037;-65
2022/03/20 02:02:47;;;;;;;14.80;6.63;;;6.70;99.90;;;;;;5015321;28;20030;-62
2022/03/20 02:05:13;;;;;;;17.00;6.95;;;6.70;99.90;;;;;;5012965;28;20041;-64
2022/03/20 02:07:40;;;;;;;15.57;7.35;;;6.70;99.90;;;;;;5014536;28;20026;-62
2022/03/20 02:10:07;;;;;;;15.45;7.25;;;6.70;99.90;;;;;;5014533;28;20042;-62
2022/03/20 02:12:34;;;;;;;13.85;6.97;;;6.60;99.90;;;;;;5014565;28;20121;-66
2022/03/20 02:15:01;;;;;;;16.05;7.28;;;6.60;99.90;;;;;;5012074;28;20025;-62
2022/03/20 02:17:30;;;;;;;15.88;7.85;;;6.60;99.90;;;;;;5014908;28;20030;-64
2022/03/20 02:20:03;;;;;;;14.98;7.00;;;6.60;99.90;;;;;;5013143;28;20040;-69
2022/03/20 02:22:29;;;;;;;18.95;7.22;;;6.60;99.90;;;;;;5014400;28;20030;-65
2022/03/20 02:24:55;;;;;;;14.70;6.38;;;6.50;99.90;;;;;;5030350;28;20123;-63
2022/03/20 02:27:24;;;;;;;15.77;6.35;;;6.50;99.90;;;;;;5034663;28;20026;-64
2022/03/20 02:29:58;;;;;;;16.38;6.60;;;6.50;99.90;;;;;;5030509;28;20025;-63
2022/03/20 02:32:29;;;;;;;19.27;7.57;;;6.40;99.90;;;;;;5020261;28;20040;-66
2022/03/20 02:34:58;;;;;;;14.93;6.93;;;6.50;99.90;;;;;;5025549;28;20030;-67
2022/03/20 02:37:25;;;;;;;14.60;6.88;;;6.40;99.90;;;;;;5010843;28;20368;-65
2022/03/20 02:39:58;;;;;;;15.98;6.75;;;6.40;99.90;;;;;;5019051;28;20361;-64
2022/03/20 02:42:24;;;;;;;13.38;5.80;;;6.40;99.90;;;;;;5023655;28;20071;-64
2022/03/20 02:45:03;;;;;;;15.55;6.60;;;6.40;99.90;;;;;;5021889;28;20033;-62
2022/03/20 02:47:35;;;;;;;18.77;6.63;;;6.30;99.90;;;;;;5029851;28;20428;-63
2022/03/20 02:50:06;;;;;;;14.50;6.70;;;6.30;99.90;;;;;;4999172;28;20085;-65
2022/03/20 02:53:03;;;;;;;15.05;7.63;;;6.30;99.90;;;;;;5013892;28;20046;-63
2022/03/20 02:55:35;;;;;;;17.67;7.43;;;6.30;99.90;;;;;;5020857;28;20054;-65
2022/03/20 02:58:02;;;;;;;17.67;7.18;;;6.30;99.90;;;;;;5025275;28;20025;-63
2022/03/20 03:00:30;;;;;;;17.90;7.05;;;6.20;99.90;;;;;;5018280;28;20025;-64
2022/03/20 03:02:57;;;;;;;15.50;6.45;;;6.20;99.90;;;;;;5023545;28;20121;-65
2022/03/20 03:05:26;;;;;;;15.63;7.03;;;6.20;99.90;;;;;;5013611;28;20022;-64
2022/03/20 03:10:56;;;;;;;19.17;6.88;;;6.20;99.90;;;;;;5010407;28;20041;-65
2022/03/20 03:13:30;;;;;;;17.98;7.32;;;6.20;99.90;;;;;;5015617;28;20121;-65
2022/03/20 03:15:58;;;;;;;18.48;7.03;;;6.20;99.90;;;;;;5012315;28;20521;-63
2022/03/20 03:18:24;;;;;;;13.95;6.75;;;6.10;99.90;;;;;;5015663;28;20631;-62
2022/03/20 03:20:50;;;;;;;15.93;6.40;;;6.10;99.90;;;;;;5023158;28;20064;-65
2022/03/20 03:23:16;;;;;;;14.88;6.97;;;6.10;99.90;;;;;;5031024;28;20032;-66
2022/03/20 03:25:42;;;;;;;13.38;6.57;;;6.10;99.90;;;;;;5017467;28;20076;-66
2022/03/20 03:28:11;;;;;;;19.02;6.95;;;6.00;99.90;;;;;;5018267;28;20061;-63
2022/03/20 03:30:41;;;;;;;17.17;7.25;;;6.00;99.90;;;;;;5016769;28;20029;-63
2022/03/20 03:33:06;;;;;;;17.15;6.88;;;6.00;99.90;;;;;;5012704;28;20022;-64
2022/03/20 03:35:41;;;;;;;17.25;7.95;;;5.90;99.90;;;;;;5012414;28;20434;-62
2022/03/20 03:38:08;;;;;;;16.17;7.07;;;6.00;99.90;;;;;;5012456;28;20022;-63
2022/03/20 03:40:34;;;;;;;21.80;8.10;;;5.90;99.90;;;;;;5021782;28;20036;-64
2022/03/20 03:43:00;;;;;;;20.30;8.07;;;5.90;99.90;;;;;;5016184;28;20030;-65
2022/03/20 03:45:26;;;;;;;18.35;8.07;;;5.90;99.90;;;;;;5024636;28;20025;-63
2022/03/20 03:47:52;;;;;;;21.10;8.93;;;5.90;99.90;;;;;;5017750;28;20561;-63
2022/03/20 03:50:19;;;;;;;19.90;7.97;;;5.80;99.90;;;;;;5013712;28;20052;-65
2022/03/20 03:52:46;;;;;;;17.40;8.20;;;5.80;99.90;;;;;;5013905;28;20132;-63
2022/03/20 03:55:11;;;;;;;17.77;8.00;;;5.80;99.90;;;;;;5022281;28;20025;-62
2022/03/20 03:57:41;;;;;;;22.77;8.45;;;5.80;99.90;;;;;;5017551;28;20030;-63
2022/03/20 04:00:07;;;;;;;18.75;8.73;;;5.80;99.90;;;;;;5015080;28;20018;-62
2022/03/20 04:02:33;;;;;;;18.42;8.48;;;5.80;99.90;;;;;;5013559;28;20121;-66
2022/03/20 04:04:59;;;;;;;20.80;8.57;;;5.80;99.90;;;;;;5013077;28;20025;-63
2022/03/20 04:07:26;;;;;;;21.67;8.15;;;5.80;99.90;;;;;;5011720;28;20034;-65
2022/03/20 04:09:53;;;;;;;21.05;7.63;;;5.80;99.90;;;;;;5014378;28;20032;-65
2022/03/20 04:12:18;;;;;;;21.92;8.07;;;5.80;99.90;;;;;;5012767;28;20049;-65
2022/03/20 04:14:45;;;;;;;19.98;8.82;;;5.80;99.90;;;;;;5012872;28;20034;-65
2022/03/20 04:17:11;;;;;;;21.17;8.35;;;5.80;99.90;;;;;;5018108;28;20516;-65
2022/03/20 04:19:36;;;;;;;19.08;8.25;;;5.70;99.90;;;;;;5016821;28;20042;-65
2022/03/20 04:22:03;;;;;;;16.88;6.93;;;5.70;99.90;;;;;;5022202;28;20038;-65
2022/03/20 04:24:29;;;;;;;18.05;7.75;;;5.70;99.90;;;;;;5017422;28;20064;-65
2022/03/20 04:26:55;;;;;;;18.48;8.23;;;5.70;99.90;;;;;;5016020;28;20040;-65
2022/03/20 04:29:21;;;;;;;20.77;8.07;;;5.70;99.90;;;;;;5019195;28;20026;-63
2022/03/20 04:31:50;;;;;;;21.48;9.32;;;5.60;99.90;;;;;;5031913;28;20044;-66
2022/03/20 04:34:16;;;;;;;19.98;8.80;;;5.60;99.90;;;;;;5019011;28;20029;-67
2022/03/20 04:36:42;;;;;;;18.05;9.10;;;5.60;99.90;;;;;;5015635;28;20065;-66
2022/03/20 04:39:08;;;;;;;20.38;8.82;;;5.60;99.90;;;;;;5023690;28;20485;-66
2022/03/20 04:41:34;;;;;;;18.30;8.82;;;5.60;99.90;;;;;;5017354;28;20057;-62
2022/03/20 04:44:00;;;;;;;16.88;7.93;;;5.60;99.90;;;;;;5031134;28;20060;-65
2022/03/20 04:46:26;;;;;;;19.75;9.02;;;5.50;99.90;;;;;;5016023;28;20104;-61
2022/03/20 04:59:49;;;;;;;20.25;8.27;;;5.40;99.90;;;;;;5021306;28;20205;-62
2022/03/20 05:02:14;;;;;;;17.95;7.88;;;5.40;99.90;;;;;;5021578;28;20469;-66
2022/03/20 05:04:40;;;;;;;22.65;10.00;;;5.40;99.90;;;;;;5015597;28;20126;-64
2022/03/20 05:07:07;;;;;;;21.00;8.52;;;5.40;99.90;;;;;;5025564;28;20461;-65
2022/03/20 05:15:08;;;;;;;19.98;8.35;;;5.40;99.90;;;;;;5020809;28;20028;-63
2022/03/20 05:17:35;;;;;;;21.40;9.60;;;5.40;99.90;;;;;;5017923;28;20119;-62
2022/03/20 05:20:01;;;;;;;23.10;10.32;;;5.30;99.90;;;;;;5018164;28;20061;-62
2022/03/20 05:22:26;;;;;;;21.75;10.77;;;5.30;99.90;;;;;;5023477;28;20462;-63
2022/03/20 05:24:53;;;;;;;21.48;9.77;;;5.30;99.90;;;;;;5024331;28;20125;-68
2022/03/20 05:27:19;;;;;;;22.13;9.35;;;5.30;99.90;;;;;;5020486;28;20037;-65
2022/03/20 05:29:44;;;;;;;21.70;9.82;;;5.20;99.90;;;;;;5019608;28;20394;-64
2022/03/20 05:32:10;;;;;;;21.70;9.43;;;5.20;99.90;;;;;;5029121;28;20045;-63
2022/03/20 05:34:37;;;;;;;21.25;10.30;;;5.20;99.90;;;;;;5016253;28;20470;-65
2022/03/20 05:37:03;;;;;;;20.80;9.45;;;5.20;99.90;;;;;;5022387;28;20036;-66
2022/03/20 05:39:28;;;;;;;22.60;9.65;;;5.20;99.90;;;;;;5015959;28;20117;-65
2022/03/20 05:41:54;;;;;;;20.38;9.30;;;5.20;99.90;;;;;;5020457;28;20037;-65
2022/03/20 05:44:25;;;;;;;19.13;8.90;;;5.20;99.90;;;;;;5027374;28;20032;-66
2022/03/20 05:46:52;;;;;;;22.40;9.65;;;5.20;99.90;;;;;;5022543;28;20084;-64
2022/03/20 05:49:19;;;;;;;22.63;8.95;;;5.10;99.90;;;;;;5019714;28;20072;-64
2022/03/20 05:51:46;;;;;;;21.30;10.30;;;5.10;99.90;;;;;;5030113;28;20041;-63
2022/03/20 05:54:12;;;;;;;20.00;8.93;;;5.10;99.90;;;;;;5020414;28;20022;-66
2022/03/20 05:59:22;;;;;;;22.23;9.40;;;5.10;99.90;;;;;;5015756;28;20390;-66
2022/03/20 06:01:50;;;;;;;20.08;8.90;;;5.10;99.90;;;;;;5023072;28;20532;-65
2022/03/20 06:04:16;;;;;;;24.30;10.82;;;5.10;99.90;;;;;;5026760;28;20136;-64
2022/03/20 06:06:43;;;;;;;23.70;10.52;;;5.10;99.90;;;;;;5026848;28;20453;-66
2022/03/20 06:09:09;;;;;;;20.50;10.25;;;5.10;99.90;;;;;;5016102;28;20028;-64
2022/03/20 06:11:34;;;;;;;20.42;9.55;;;5.10;99.90;;;;;;5013728;28;20045;-62
2022/03/20 06:14:03;;;;;;;21.30;9.38;;;5.10;99.90;;;;;;5013965;28;20029;-65
2022/03/20 06:16:30;;;;;;;22.98;10.25;;;5.10;99.90;;;;;;5014934;28;20034;-66
2022/03/20 06:18:56;;;;;;;20.95;9.55;;;5.20;99.90;;;;;;5013393;28;20048;-64
2022/03/20 06:21:23;;;;;;;21.65;10.13;;;5.20;99.90;;;;;;5025366;28;20022;-64
2022/03/20 06:23:55;;;;;;;23.45;10.43;;;5.20;99.90;;;;;;5015967;28;20494;-64
2022/03/20 06:26:23;;;;;;;20.42;9.43;;;5.30;99.90;;;;;;5022449;28;20029;-67
2022/03/20 06:28:49;;;;;;;23.00;9.50;;;5.30;99.90;;;;;;5018826;28;20030;-65
2022/03/20 06:31:16;;;;;;;22.13;10.38;;;5.30;99.90;;;;;;5026731;28;20033;-66
2022/03/20 06:33:43;;;;;;;23.63;11.25;;;5.40;99.90;;;;;;5029216;28;20119;-61
2022/03/20 06:36:10;;;;;;;24.52;9.57;;;5.30;99.90;;;;;;5019000;28;20026;-63
2022/03/20 06:38:36;;;;;;;23.58;11.75;;;5.40;99.90;;;;;;5018074;28;20378;-66
2022/03/20 06:41:04;;;;;;;19.63;9.75;;;5.40;99.90;;;;;;5016317;28;20033;-68
2022/03/20 06:43:29;;;;;;;21.85;10.07;;;5.50;99.90;;;;;;5015001;28;20485;-65
2022/03/20 06:45:56;;;;;;;22.38;10.63;;;5.50;99.90;;;;;;5029606;28;20409;-64
2022/03/20 06:48:22;;;;;;;23.15;10.73;;;5.50;99.90;;;;;;5026125;28;20093;-63
2022/03/20 06:50:47;;;;;;;22.17;10.18;;;5.50;99.90;;;;;;5023511;28;20116;-66
2022/03/20 06:53:13;;;;;;;22.75;10.60;;;5.60;99.90;;;;;;5019301;28;20028;-63
2022/03/20 06:55:39;;;;;;;23.50;10.90;;;5.70;99.90;;;;;;5023410;28;20037;-65
2022/03/20 06:58:05;;;;;;;24.70;10.75;;;5.70;99.90;;;;;;5028775;28;20030;-62
2022/03/20 07:00:31;;;;;;;24.13;11.05;;;5.80;99.90;;;;;;5019283;28;20096;-64
2022/03/20 07:02:58;;;;;;;25.95;11.15;;;5.90;99.90;;;;;;5026039;28;20036;-65
2022/03/20 07:05:24;;;;;;;27.77;11.52;;;6.00;99.90;;;;;;5017967;28;20121;-63
2022/03/20 07:07:50;;;;;;;24.17;10.35;;;6.00;99.90;;;;;;5020897;28;20029;-67
2022/03/20 07:10:21;;;;;;;23.85;11.20;;;6.10;99.90;;;;;;5019056;28;20075;-65
2022/03/20 07:12:46;;;;;;;24.20;11.32;;;6.20;99.90;;;;;;5029979;28;20045;-68
2022/03/20 07:15:12;;;;;;;24.58;10.55;;;6.20;99.90;;;;;;5015430;28;20026;-64
2022/03/20 07:17:38;;;;;;;21.40;10.27;;;6.20;99.90;;;;;;5021205;28;20033;-66
2022/03/20 07:20:09;;;;;;;23.15;10.57;;;6.30;99.90;;;;;;5016835;28;20029;-63
2022/03/20 07:22:35;;;;;;;21.30;10.33;;;6.40;99.90;;;;;;5013016;28;20113;-66
2022/03/20 07:29:29;;;;;;;20.42;10.25;;;6.50;99.90;;;;;;5016058;28;20049;-62
2022/03/20 07:30:32;;;;;;;19.55;9.18;;;6.60;99.90;;;;;;5015148;28;20036;-64
2022/03/20 07:32:58;;;;;;;20.33;10.57;;;6.60;99.90;;;;;;5008475;28;20038;-64
2022/03/20 07:35:24;;;;;;;21.70;9.73;;;6.60;99.90;;;;;;5007632;28;20394;-65
2022/03/20 07:37:50;;;;;;;25.27;11.10;;;6.60;99.90;;;;;;5024867;28;20040;-65
2022/03/20 07:40:16;;;;;;;22.98;11.18;;;6.60;99.90;;;;;;5028685;28;20029;-64
2022/03/20 07:42:42;;;;;;;21.38;9.70;;;6.60;99.90;;;;;;5017759;28;20501;-64
2022/03/20 07:45:08;;;;;;;25.23;11.13;;;6.60;99.90;;;;;;5018079;28;20385;-66
2022/03/20 07:47:33;;;;;;;22.85;10.75;;;6.70;99.90;;;;;;5029327;28;20037;-63
2022/03/20 07:49:59;;;;;;;22.23;11.40;;;6.90;99.90;;;;;;5017658;28;20044;-65
2022/03/20 07:52:25;;;;;;;25.02;10.25;;;7.00;99.90;;;;;;5020812;28;20037;-65
2022/03/20 07:54:51;;;;;;;23.50;9.95;;;7.20;99.90;;;;;;5021400;28;20367;-65
2022/03/20 07:57:17;;;;;;;21.65;10.82;;;7.30;99.60;;;;;;5016530;28;20059;-65
2022/03/20 07:59:44;;;;;;;22.25;10.93;;;7.40;99.40;;;;;;5025541;28;20018;-63
2022/03/20 08:02:10;;;;;;;22.30;11.40;;;7.50;99.30;;;;;;5017865;28;20029;-64
2022/03/20 08:04:36;;;;;;;24.35;11.65;;;7.60;98.90;;;;;;5022430;28;20465;-66
2022/03/20 08:07:02;;;;;;;23.58;12.40;;;7.70;98.80;;;;;;5019698;28;20031;-63
2022/03/20 08:09:28;;;;;;;23.45;10.48;;;7.90;98.50;;;;;;5016166;28;20034;-64
2022/03/20 08:11:55;;;;;;;21.25;10.98;;;8.40;98.00;;;;;;5014653;28;20746;-65
2022/03/20 08:14:20;;;;;;;22.77;11.40;;;8.90;97.10;;;;;;5018382;28;20049;-65
2022/03/20 08:16:47;;;;;;;22.67;10.80;;;9.40;96.00;;;;;;5012733;28;20058;-66
2022/03/20 08:19:16;;;;;;;21.40;11.00;;;9.80;95.20;;;;;;5025011;28;20505;-63
2022/03/20 08:21:42;;;;;;;19.95;10.45;;;10.20;94.70;;;;;;5014631;28;20029;-64
2022/03/20 08:24:09;;;;;;;24.75;11.05;;;10.50;93.60;;;;;;5025739;28;21663;-64
2022/03/20 08:26:35;;;;;;;21.90;11.00;;;10.60;93.30;;;;;;5012121;28;20026;-63
2022/03/20 08:29:02;;;;;;;23.23;11.40;;;10.90;92.90;;;;;;5018890;28;20041;-65
2022/03/20 08:31:28;;;;;;;20.38;10.70;;;11.10;92.20;;;;;;5025290;28;20037;-65
2022/03/20 08:33:55;;;;;;;22.92;10.95;;;11.20;91.70;;;;;;5016520;28;20033;-65
2022/03/20 08:36:21;;;;;;;19.17;9.98;;;11.20;91.60;;;;;;5016951;28;20395;-64
2022/03/20 08:38:47;;;;;;;23.05;11.25;;;11.20;91.50;;;;;;5014712;28;20022;-63
2022/03/20 08:41:13;;;;;;;22.50;11.55;;;11.30;91.10;;;;;;5012987;28;20458;-64
2022/03/20 08:43:38;;;;;;;25.65;11.65;;;11.30;91.20;;;;;;5027282;28;20037;-63
2022/03/20 08:46:04;;;;;;;21.67;11.43;;;11.40;91.00;;;;;;5030844;28;20025;-64
2022/03/20 08:48:30;;;;;;;21.63;11.65;;;11.40;90.50;;;;;;5019594;28;20025;-62
2022/03/20 08:50:55;;;;;;;26.10;12.18;;;11.50;90.70;;;;;;5030900;28;20034;-65
2022/03/20 08:53:22;;;;;;;23.08;12.20;;;11.50;90.60;;;;;;5032414;28;20489;-63
2022/03/20 08:55:49;;;;;;;22.27;12.07;;;11.40;90.50;;;;;;5020355;28;20093;-64
2022/03/20 08:58:15;;;;;;;24.67;12.60;;;11.30;90.40;;;;;;5017985;28;20018;-64
2022/03/20 09:00:42;;;;;;;24.00;12.90;;;11.10;90.70;;;;;;5025598;28;20040;-66
2022/03/20 09:03:10;;;;;;;23.33;12.05;;;10.90;90.80;;;;;;5018421;28;20030;-63
2022/03/20 09:05:36;;;;;;;24.60;12.73;;;10.70;90.80;;;;;;5027036;28;20154;-63
2022/03/20 09:08:02;;;;;;;25.08;11.77;;;10.60;91.10;;;;;;5022110;28;20134;-63
2022/03/20 09:10:27;;;;;;;23.80;12.80;;;10.40;91.30;;;;;;5014296;28;20029;-64
2022/03/20 09:12:57;;;;;;;23.55;12.88;;;10.30;91.20;;;;;;5020408;28;20168;-62
2022/03/20 09:15:24;;;;;;;26.23;13.40;;;10.40;91.30;;;;;;5017475;28;20060;-64
2022/03/20 09:20:36;;;;;;;23.65;11.75;;;10.40;91.10;;;;;;5004899;28;20084;-64
2022/03/20 09:23:03;;;;;;;25.83;13.05;;;10.30;91.40;;;;;;5022038;28;20389;-64
2022/03/20 09:25:31;;;;;;;22.08;11.50;;;10.30;91.30;;;;;;5029605;28;20045;-65
2022/03/20 09:27:58;;;;;;;23.27;12.95;;;10.30;91.20;;;;;;5013309;28;20022;-63
2022/03/20 09:30:23;;;;;;;25.65;12.13;;;10.50;90.70;;;;;;5020555;28;20048;-63
2022/03/20 09:32:49;;;;;;;24.75;12.63;;;10.70;90.20;;;;;;5026214;28;20497;-62
2022/03/20 09:35:16;;;;;;;27.38;12.73;;;10.80;90.20;;;;;;5027258;28;20113;-62
2022/03/20 09:37:42;;;;;;;25.08;12.60;;;10.80;90.20;;;;;;5021584;28;20030;-63
2022/03/20 09:40:11;;;;;;;26.40;13.20;;;10.80;90.20;;;;;;5018198;28;20034;-65
2022/03/20 09:42:37;;;;;;;25.27;13.35;;;10.80;90.10;;;;;;5014854;28;20436;-67
2022/03/20 09:45:05;;;;;;;24.38;14.00;;;10.70;90.10;;;;;;5013840;28;20026;-63
2022/03/20 09:47:41;;;;;;;25.70;12.50;;;10.50;90.20;;;;;;5014485;28;20092;-65
2022/03/20 09:50:09;;;;;;;27.42;14.13;;;10.40;90.30;;;;;;5011772;28;20038;-62
2022/03/20 09:52:36;;;;;;;25.80;14.13;;;10.20;90.70;;;;;;5012360;28;20046;-67
2022/03/20 09:55:04;;;;;;;28.02;13.50;;;10.20;91.30;;;;;;5014590;28;20068;-63
2022/03/20 09:57:30;;;;;;;27.02;13.10;;;10.10;91.10;;;;;;5015095;28;20033;-67
2022/03/20 10:00:04;;;;;;;27.00;14.35;;;10.10;90.80;;;;;;5015154;28;20449;-65
2022/03/20 10:02:31;;;;;;;28.63;13.75;;;9.90;90.90;;;;;;5015468;28;20030;-64
2022/03/20 10:05:06;;;;;;;27.48;14.38;;;9.70;91.30;;;;;;5014066;28;20101;-66
2022/03/20 10:07:35;;;;;;;26.70;13.73;;;9.60;91.50;;;;;;5011079;28;20084;-65
2022/03/20 10:10:14;;;;;;;29.52;14.00;;;9.40;91.40;;;;;;5008980;28;20022;-64
2022/03/20 10:12:44;;;;;;;29.90;14.70;;;9.20;91.50;;;;;;5014004;28;20041;-64
2022/03/20 10:15:24;;;;;;;23.45;12.55;;;9.10;91.20;;;;;;5014592;28;20104;-64
2022/03/20 10:18:05;;;;;;;26.13;12.80;;;9.00;91.50;;;;;;5012407;28;20386;-64
2022/03/20 10:20:46;;;;;;;29.38;14.18;;;8.90;91.60;;;;;;5009911;28;20029;-66
2022/03/20 10:23:33;;;;;;;25.67;13.73;;;8.80;91.80;;;;;;5010650;28;20030;-65
2022/03/20 10:26:02;;;;;;;27.27;14.23;;;8.80;92.00;;;;;;5008721;28;20120;-64
2022/03/20 10:28:55;;;;;;;26.67;14.15;;;8.90;92.10;;;;;;5009874;28;20548;-63
2022/03/20 10:31:21;;;;;;;27.60;13.75;;;9.00;91.40;;;;;;5008712;28;20081;-62
2022/03/20 10:34:00;;;;;;;26.77;13.30;;;9.10;91.50;;;;;;5011096;28;20119;-65
2022/03/20 10:36:27;;;;;;;26.60;13.82;;;9.20;91.20;;;;;;5012676;28;20131;-63
2022/03/20 10:38:52;;;;;;;29.58;14.35;;;9.40;91.30;;;;;;5013205;28;20466;-66
2022/03/20 10:41:26;;;;;;;29.98;14.30;;;9.70;91.20;;;;;;5012768;28;20033;-65
2022/03/20 10:43:54;;;;;;;26.60;14.00;;;10.10;90.80;;;;;;5007381;28;20520;-67
2022/03/20 10:46:26;;;;;;;25.23;14.25;;;10.60;90.30;;;;;;5012317;28;20030;-63
2022/03/20 10:49:02;;;;;;;26.58;14.57;;;11.20;89.20;;;;;;5013225;28;20033;-68
2022/03/20 10:51:37;;;;;;;25.05;13.77;;;12.00;87.80;;;;;;5017906;28;20409;-62
2022/03/20 10:54:06;;;;;;;24.00;13.25;;;13.00;85.40;;;;;;5012226;28;20528;-64
2022/03/20 10:56:32;;;;;;;27.67;13.50;;;13.70;82.60;;;;;;5009571;28;20086;-66
2022/03/20 10:59:02;;;;;;;23.50;14.20;;;14.40;81.30;;;;;;5012506;28;20105;-64
2022/03/20 11:01:35;;;;;;;24.63;14.50;;;15.10;80.20;;;;;;5008860;28;20064;-62
2022/03/20 11:04:03;;;;;;;26.33;15.23;;;15.90;78.00;;;;;;5013876;28;20036;-65
2022/03/20 11:06:29;;;;;;;24.10;15.15;;;16.50;76.50;;;;;;5011586;28;20038;-66
2022/03/20 11:08:55;;;;;;;25.10;15.43;;;16.70;74.80;;;;;;5009179;28;20045;-63
2022/03/20 11:11:23;;;;;;;25.15;15.23;;;16.70;73.00;;;;;;5001527;28;20029;-64
2022/03/20 11:13:50;;;;;;;26.70;15.70;;;16.90;71.70;;;;;;5015494;28;20077;-65
2022/03/20 11:16:24;;;;;;;27.35;16.60;;;16.70;71.30;;;;;;5013799;28;20041;-62
2022/03/20 11:18:53;;;;;;;26.17;16.17;;;16.20;71.50;;;;;;5011370;28;20030;-67
2022/03/20 11:21:22;;;;;;;26.45;15.60;;;15.60;72.00;;;;;;5013665;28;20458;-66
2022/03/20 11:23:50;;;;;;;27.30;16.23;;;15.00;72.50;;;;;;5004791;28;20121;-66
2022/03/20 11:26:19;;;;;;;26.85;15.75;;;14.40;72.90;;;;;;4994130;28;20073;-67
2022/03/20 11:28:49;;;;;;;25.08;15.93;;;13.70;74.40;;;;;;4997143;28;20091;-65
2022/03/20 11:31:15;;;;;;;24.83;14.88;;;13.20;75.30;;;;;;5012302;28;20185;-64
2022/03/20 11:33:44;;;;;;;25.30;13.85;;;12.70;76.40;;;;;;5014029;28;20180;-64
2022/03/20 11:36:11;;;;;;;28.27;16.05;;;12.30;76.60;;;;;;5013706;28;20096;-65
2022/03/20 11:38:37;;;;;;;27.30;14.55;;;11.80;78.00;;;;;;5013696;28;20053;-62
2022/03/20 11:41:14;;;;;;;26.52;14.82;;;11.40;78.60;;;;;;5009551;28;20470;-66
2022/03/20 11:44:14;;;;;;;32.22;16.17;;;11.00;79.60;;;;;;5030254;28;20037;-62
2022/03/20 11:46:43;;;;;;;27.48;15.27;;;10.60;81.30;;;;;;5017340;28;20117;-62
2022/03/20 11:49:17;;;;;;;28.40;14.82;;;10.40;85.30;;;;;;5023713;28;20455;-65
2022/03/20 11:52:14;;;;;;;29.98;16.08;;;9.80;90.70;;;;;;5033047;28;20037;-65
2022/03/20 11:54:40;;;;;;;33.97;18.17;;;9.30;92.80;;;;;;4996047;28;20049;-61
2022/03/20 11:57:37;;;;;;;29.15;17.55;;;8.80;95.50;;;;;;5012304;28;20030;-69
2022/03/20 12:00:18;;;;;;;32.63;18.60;;;8.30;98.20;;;;;;4992305;28;20038;-65
2022/03/20 12:03:10;;;;;;;34.60;19.17;;;7.90;99.90;;;;;;5024768;28;20037;-64
2022/03/20 12:05:55;;;;;;;29.75;15.63;;;7.70;99.90;;;;;;5006884;28;20040;-66
2022/03/20 12:08:30;;;;;;;36.58;19.65;;;7.50;99.90;;;;;;5028347;28;20088;-61
2022/03/20 12:11:04;;;;;;;36.58;19.55;;;7.30;99.90;;;;;;5029170;28;20520;-64
2022/03/20 12:14:01;;;;;;;26.98;13.60;;;7.40;99.90;;;;;;5018055;28;20036;-66
2022/03/20 12:16:42;;;;;;;34.00;17.63;;;7.50;99.90;;;;;;5016193;28;20056;-64
2022/03/20 12:19:13;;;;;;;31.45;14.80;;;7.50;99.90;;;;;;5019090;28;20034;-65
2022/03/20 12:21:53;;;;;;;36.17;18.25;;;7.60;99.90;;;;;;5025987;28;20087;-62
2022/03/20 12:24:49;;;;;;;32.88;18.52;;;7.80;99.90;;;;;;5014886;28;20077;-65
2022/03/20 12:27:23;;;;;;;37.55;19.08;;;8.10;99.90;;;;;;5028758;28;20092;-65
2022/03/20 12:29:57;;;;;;;34.25;18.60;;;8.40;99.90;;;;;;5022708;28;20087;-62
2022/03/20 12:32:24;;;;;;;37.40;19.02;;;8.80;99.90;;;;;;5019953;28;20124;-64
2022/03/20 12:35:02;;;;;;;28.38;16.23;;;8.80;99.90;;;;;;5015398;28;20026;-63
2022/03/20 12:37:34;;;;;;;34.20;18.95;;;8.90;99.90;;;;;;5012888;28;20029;-63
2022/03/20 12:40:18;;;;;;;;;;;9.00;99.90;;;;;;5013174;28;20026;-66
2022/03/20 12:42:59;;;;;;;31.50;17.40;;;9.20;99.90;;;;;;5019327;28;19909;-65
2022/03/20 12:45:28;;;;;;;26.33;13.80;;;9.20;99.90;;;;;;5005000;28;20059;-63
2022/03/20 12:48:00;;;;;;;30.15;15.10;;;9.30;99.90;;;;;;5032914;28;20060;-62
2022/03/20 12:50:33;;;;;;;33.80;18.63;;;9.50;99.90;;;;;;5021367;28;20036;-64
2022/03/20 12:53:17;;;;;;;34.55;18.83;;;9.70;99.90;;;;;;5016477;28;20084;-64
2022/03/20 12:55:59;;;;;;;33.60;18.92;;;9.90;99.90;;;;;;5021153;28;20045;-66
2022/03/20 12:58:25;;;;;;;31.20;18.77;;;10.00;99.90;;;;;;5015904;28;20029;-63
2022/03/20 13:00:58;;;;;;;29.88;17.88;;;10.30;99.90;;;;;;5029803;28;20065;-62
2022/03/20 13:03:27;;;;;;;31.63;17.90;;;10.60;99.90;;;;;;5019045;28;20139;-62
2022/03/20 13:05:57;;;;;;;30.77;17.02;;;10.90;99.00;;;;;;5025111;28;20453;-65
2022/03/20 13:08:23;;;;;;;34.72;18.45;;;11.00;99.50;;;;;;5016688;28;20029;-63
2022/03/20 13:10:53;;;;;;;36.40;20.90;;;11.30;98.40;;;;;;5016783;28;20037;-62
2022/03/20 13:13:23;;;;;;;32.38;18.92;;;11.30;98.20;;;;;;5017458;28;20026;-63
2022/03/20 13:15:49;;;;;;;38.95;20.98;;;11.60;98.30;;;;;;5017053;28;20024;-63